createdAt,value
2023-05-07T00:01:20.661Z,100256.56
2023-05-07T00:04:37.838Z,100266.22
2023-05-07T00:07:50.316Z,100253.78
2023-05-07T00:11:03.207Z,100247.94
2023-05-07T00:14:15.577Z,100239.75
2023-05-07T00:17:28.350Z,100242.44
2023-05-07T00:20:40.797Z,100237.91
2023-05-07T00:23:54.612Z,100243.72
2023-05-07T00:27:07.103Z,100246.78
2023-05-07T00:30:20.087Z,100247.47
2023-05-07T00:33:32.513Z,100251.44
2023-05-07T00:36:45.140Z,100252.84
2023-05-07T00:39:57.496Z,100249.03
2023-05-07T00:43:10.166Z,100254.31
2023-05-07T00:46:22.570Z,100250.84
2023-05-07T00:49:39.090Z,100252.72
2023-05-07T00:52:51.500Z,100249.41
2023-05-07T00:56:04.303Z,100250.41
2023-05-07T00:59:16.691Z,100251.28
2023-05-07T01:02:29.398Z,100249.97
2023-05-07T01:05:41.890Z,100254.94
2023-05-07T01:08:57.639Z,100262.44
2023-05-07T01:12:10.285Z,100259.50
2023-05-07T01:15:23.015Z,100259.59
2023-05-07T01:18:35.683Z,100257.84
2023-05-07T01:21:49.419Z,100266.38
2023-05-07T01:25:02.794Z,100256.47
2023-05-07T01:28:15.902Z,100262.25
2023-05-07T01:31:28.630Z,100266.09
2023-05-07T01:34:41.395Z,100268.16
2023-05-07T01:37:53.776Z,100264.19
2023-05-07T01:41:08.470Z,100272.69
2023-05-07T01:44:20.884Z,100271.06
2023-05-07T01:47:33.488Z,100264.94
2023-05-07T01:50:45.920Z,100262.72
2023-05-07T01:53:59.039Z,100260.84
2023-05-07T01:57:11.402Z,100261.91
2023-05-07T02:00:24.626Z,100255.66
2023-05-07T02:03:37.795Z,100258.06
2023-05-07T02:06:50.620Z,100251.56
2023-05-07T02:10:04.303Z,100257.06
2023-05-07T02:13:16.837Z,100257.47
2023-05-07T02:16:29.581Z,100254.84
2023-05-07T02:19:42.050Z,100252.81
2023-05-07T02:22:54.747Z,100255.94
2023-05-07T02:26:07.442Z,100252.28
2023-05-07T02:29:19.903Z,100242.38
2023-05-07T02:32:33.012Z,100235.28
2023-05-07T02:35:45.484Z,100239.59
2023-05-07T02:38:58.334Z,100240.78
2023-05-07T02:42:10.901Z,100239.66
2023-05-07T02:45:23.583Z,100241.69
2023-05-07T02:48:36.865Z,100231.13
2023-05-07T02:51:49.509Z,100224.75
2023-05-07T02:55:03.643Z,100230.81
2023-05-07T02:58:16.312Z,100230.84
2023-05-07T03:01:29.148Z,100239.94
2023-05-07T03:04:42.710Z,100241.38
2023-05-07T03:07:55.049Z,100245.44
2023-05-07T03:11:07.721Z,100240.03
2023-05-07T03:14:20.088Z,100247.25
2023-05-07T03:17:32.934Z,100251.25
2023-05-07T03:20:45.421Z,100255.50
2023-05-07T03:23:58.171Z,100260.16
2023-05-07T03:27:10.557Z,100254.72
2023-05-07T03:30:23.559Z,100258.13
2023-05-07T03:33:36.474Z,100269.84
2023-05-07T03:36:50.093Z,100266.19
2023-05-07T03:40:03.824Z,100256.47
2023-05-07T03:43:18.177Z,100260.50
2023-05-07T03:46:31.336Z,100261.06
2023-05-07T03:49:44.272Z,100256.44
2023-05-07T03:52:56.900Z,100261.03
2023-05-07T03:56:09.845Z,100264.44
2023-05-07T03:59:23.237Z,100260.69
2023-05-07T04:02:36.391Z,100255.47
2023-05-07T04:05:49.623Z,100258.25
2023-05-07T04:09:02.099Z,100261.03
2023-05-07T04:12:15.804Z,100261.69
2023-05-07T04:15:28.457Z,100262.06
2023-05-07T04:18:42.142Z,100262.78
2023-05-07T04:21:54.643Z,100270.31
2023-05-07T04:25:10.151Z,100273.16
2023-05-07T04:28:23.164Z,100277.47
2023-05-07T04:31:36.428Z,100278.66
2023-05-07T04:34:49.043Z,100290.31
2023-05-07T04:38:02.700Z,100284.69
2023-05-07T04:41:16.156Z,100287.81
2023-05-07T04:44:29.170Z,100292.38
2023-05-07T04:47:41.792Z,100298.72
2023-05-07T04:50:54.700Z,100297.50
2023-05-07T04:54:07.451Z,100307.59
2023-05-07T04:57:20.196Z,100305.88
2023-05-07T05:00:33.064Z,100308.25
2023-05-07T05:03:46.620Z,100306.06
2023-05-07T05:06:59.245Z,100313.00
2023-05-07T05:10:12.118Z,100316.88
2023-05-07T05:13:25.431Z,100312.94
2023-05-07T05:16:38.608Z,100317.00
2023-05-07T05:19:51.893Z,100316.56
2023-05-07T05:23:05.132Z,100314.97
2023-05-07T05:26:17.962Z,100313.97
2023-05-07T05:29:32.380Z,100311.81
2023-05-07T05:32:45.038Z,100304.06
2023-05-07T05:35:57.859Z,100303.38
2023-05-07T05:39:10.308Z,100311.19
2023-05-07T05:42:23.035Z,100311.63
2023-05-07T05:45:35.621Z,100307.28
2023-05-07T05:48:48.378Z,100309.31
2023-05-07T05:52:00.789Z,100313.09
2023-05-07T05:55:13.673Z,100308.84
2023-05-07T05:58:27.054Z,100291.34
2023-05-07T06:01:40.871Z,100293.44
2023-05-07T06:04:53.878Z,100293.94
2023-05-07T06:08:07.260Z,100300.75
2023-05-07T06:11:21.169Z,100300.69
2023-05-07T06:14:33.920Z,100308.31
2023-05-07T06:17:46.721Z,100305.59
2023-05-07T06:20:59.179Z,100304.50
2023-05-07T06:24:12.228Z,100314.47
2023-05-07T06:27:24.994Z,100296.09
2023-05-07T06:30:38.370Z,100300.94
2023-05-07T06:33:51.052Z,100297.50
2023-05-07T06:37:04.260Z,100302.53
2023-05-07T06:40:17.827Z,100300.38
2023-05-07T06:43:32.641Z,100303.59
2023-05-07T06:46:47.402Z,100307.19
2023-05-07T06:50:00.453Z,100308.59
2023-05-07T06:53:12.997Z,100305.56
2023-05-07T06:56:26.300Z,100303.66
2023-05-07T06:59:39.300Z,100304.78
2023-05-07T07:02:52.035Z,100306.97
2023-05-07T07:06:05.377Z,100307.38
2023-05-07T07:09:18.287Z,100306.28
2023-05-07T07:12:30.982Z,100306.00
2023-05-07T07:15:44.295Z,100299.66
2023-05-07T07:18:56.732Z,100310.88
2023-05-07T07:22:09.451Z,100312.03
2023-05-07T07:25:21.859Z,100318.19
2023-05-07T07:28:34.800Z,100315.88
2023-05-07T07:31:47.428Z,100320.44
2023-05-07T07:35:00.608Z,100319.41
2023-05-07T07:38:13.306Z,100326.31
2023-05-07T07:41:26.396Z,100323.16
2023-05-07T07:44:40.647Z,100327.78
2023-05-07T07:47:54.024Z,100323.84
2023-05-07T07:51:06.885Z,100332.34
2023-05-07T07:54:19.732Z,100328.03
2023-05-07T07:57:32.410Z,100325.88
2023-05-07T08:00:45.188Z,100329.16
2023-05-07T08:04:04.269Z,100332.41
2023-05-07T08:07:21.479Z,100342.66
2023-05-07T08:10:39.398Z,100332.19
2023-05-07T08:13:52.683Z,100345.72
2023-05-07T08:17:05.865Z,100335.91
2023-05-07T08:20:18.600Z,100342.50
2023-05-07T08:23:31.546Z,100342.28
2023-05-07T08:26:47.538Z,100339.28
2023-05-07T08:30:00.934Z,100341.22
2023-05-07T08:33:13.534Z,100338.78
2023-05-07T08:36:26.955Z,100343.06
2023-05-07T08:39:39.755Z,100329.28
2023-05-07T08:42:56.177Z,100343.62
2023-05-07T08:46:10.567Z,100343.34
2023-05-07T08:49:24.397Z,100331.91
2023-05-07T08:52:37.796Z,100332.69
2023-05-07T08:55:51.065Z,100326.94
2023-05-07T08:59:04.804Z,100326.25
2023-05-07T09:02:19.248Z,100332.69
2023-05-07T09:05:32.194Z,100331.59
2023-05-07T09:08:53.536Z,100330.16
2023-05-07T09:12:06.544Z,100332.25
2023-05-07T09:15:19.737Z,100329.69
2023-05-07T09:18:32.317Z,100331.03
2023-05-07T09:21:45.350Z,100330.28
2023-05-07T09:24:57.914Z,100335.25
2023-05-07T09:28:11.788Z,100340.28
2023-05-07T09:31:27.225Z,100340.25
2023-05-07T09:34:40.557Z,100338.13
2023-05-07T09:37:56.908Z,100338.69
2023-05-07T09:41:11.131Z,100336.19
2023-05-07T09:44:24.194Z,100343.59
2023-05-07T09:47:37.856Z,100335.37
2023-05-07T09:50:51.190Z,100339.88
2023-05-07T09:54:04.502Z,100339.31
2023-05-07T09:57:18.032Z,100336.16
2023-05-07T10:00:31.294Z,100334.31
2023-05-07T10:03:45.284Z,100342.53
2023-05-07T10:06:57.893Z,100331.66
2023-05-07T10:10:11.418Z,100333.78
2023-05-07T10:13:24.252Z,100335.00
2023-05-07T10:16:37.930Z,100331.91
2023-05-07T10:19:50.972Z,100333.06
2023-05-07T10:23:05.522Z,100329.19
2023-05-07T10:26:19.481Z,100327.53
2023-05-07T10:29:40.412Z,100326.56
2023-05-07T10:32:55.793Z,100329.09
2023-05-07T10:36:09.105Z,100322.31
2023-05-07T10:39:22.623Z,100330.16
2023-05-07T10:42:35.991Z,100328.53
2023-05-07T10:46:10.886Z,100321.69
2023-05-07T10:49:24.723Z,100325.00
2023-05-07T10:52:37.619Z,100321.28
2023-05-07T10:56:19.868Z,100329.78
2023-05-07T10:59:35.017Z,100327.16
2023-05-07T11:03:00.523Z,100328.19
2023-05-07T11:06:16.992Z,100329.81
2023-05-07T11:10:02.139Z,100334.06
2023-05-07T11:13:17.223Z,100334.84
2023-05-07T11:16:31.261Z,100323.41
2023-05-07T11:19:53.965Z,100333.97
2023-05-07T11:23:08.621Z,100332.72
2023-05-07T11:26:22.340Z,100328.34
2023-05-07T11:29:35.272Z,100323.84
2023-05-07T11:32:49.047Z,100325.44
2023-05-07T11:36:02.870Z,100330.94
2023-05-07T11:39:36.921Z,100322.16
2023-05-07T11:46:11.719Z,100329.63
2023-05-07T11:49:26.360Z,100320.00
2023-05-07T11:52:40.278Z,100316.94
2023-05-07T11:55:58.895Z,100320.53
2023-05-07T11:59:11.241Z,100315.78
2023-05-07T12:02:25.983Z,100308.28
2023-05-07T12:05:42.915Z,100314.56
2023-05-07T12:08:55.723Z,100312.38
2023-05-07T12:12:08.647Z,100297.59
2023-05-07T12:15:23.870Z,100309.62
2023-05-07T12:18:37.014Z,100305.03
2023-05-07T12:21:49.422Z,100301.53
2023-05-07T12:25:02.159Z,100290.53
2023-05-07T12:28:16.407Z,100303.25
2023-05-07T12:31:29.094Z,100293.97
2023-05-07T12:34:45.350Z,100289.84
2023-05-07T12:38:00.837Z,100275.66
2023-05-07T12:41:16.325Z,100284.00
2023-05-07T12:44:35.802Z,100289.00
2023-05-07T12:47:48.248Z,100286.72
2023-05-07T12:51:01.591Z,100288.41
2023-05-07T12:54:13.984Z,100282.38
2023-05-07T12:57:26.607Z,100282.22
2023-05-07T13:00:39.577Z,100271.66
2023-05-07T13:03:52.477Z,100275.03
2023-05-07T13:07:04.913Z,100285.53
2023-05-07T13:10:17.645Z,100278.16
2023-05-07T13:13:33.363Z,100286.81
2023-05-07T13:16:46.105Z,100282.66
2023-05-07T13:19:58.509Z,100291.03
2023-05-07T13:23:11.201Z,100286.03
2023-05-07T13:26:26.655Z,100280.00
2023-05-07T13:29:39.844Z,100281.16
2023-05-07T13:32:53.209Z,100272.66
2023-05-07T13:36:06.689Z,100271.63
2023-05-07T13:39:19.103Z,100265.13
2023-05-07T13:42:32.259Z,100264.75
2023-05-07T13:45:44.658Z,100250.63
2023-05-07T13:48:57.471Z,100254.63
2023-05-07T13:52:09.829Z,100251.75
2023-05-07T13:55:23.527Z,100250.13
2023-05-07T13:58:42.167Z,100244.37
2023-05-07T14:02:01.218Z,100247.34
2023-05-07T14:05:14.586Z,100241.34
2023-05-07T14:08:27.248Z,100236.09
2023-05-07T14:11:40.839Z,100221.81
2023-05-07T14:14:53.295Z,100226.63
2023-05-07T14:18:07.004Z,100222.75
2023-05-07T14:21:19.320Z,100225.22
2023-05-07T14:24:38.048Z,100224.03
2023-05-07T14:27:51.198Z,100226.59
2023-05-07T14:31:04.034Z,100235.16
2023-05-07T14:34:16.369Z,100231.88
2023-05-07T14:37:29.273Z,100232.72
2023-05-07T14:40:41.679Z,100231.31
2023-05-07T14:43:54.316Z,100230.31
2023-05-07T14:47:06.700Z,100232.81
2023-05-07T14:50:20.474Z,100232.72
2023-05-07T14:53:32.859Z,100243.16
2023-05-07T14:56:45.554Z,100238.22
2023-05-07T14:59:57.890Z,100238.56
2023-05-07T15:03:11.266Z,100230.78
2023-05-07T15:06:27.524Z,100245.97
2023-05-07T15:09:40.133Z,100244.88
2023-05-07T15:12:52.536Z,100252.47
2023-05-07T15:16:05.380Z,100244.13
2023-05-07T15:19:18.112Z,100250.22
2023-05-07T15:22:30.805Z,100241.75
2023-05-07T15:25:43.418Z,100243.97
2023-05-07T15:28:58.317Z,100246.09
2023-05-07T15:32:11.550Z,100249.72
2023-05-07T15:35:24.545Z,100251.84
2023-05-07T15:38:36.931Z,100245.66
2023-05-07T15:41:49.544Z,100239.31
2023-05-07T15:45:02.436Z,100243.47
2023-05-07T15:48:15.259Z,100238.22
2023-05-07T15:51:28.282Z,100232.91
2023-05-07T15:54:41.105Z,100232.38
2023-05-07T15:57:55.170Z,100244.63
2023-05-07T16:01:07.940Z,100239.59
2023-05-07T16:04:21.143Z,100246.72
2023-05-07T16:07:33.498Z,100244.63
2023-05-07T16:10:46.167Z,100245.22
2023-05-07T16:14:00.839Z,100242.25
2023-05-07T16:17:13.576Z,100249.84
2023-05-07T16:20:30.127Z,100242.12
2023-05-07T16:23:42.589Z,100251.25
2023-05-07T16:26:54.790Z,100242.66
2023-05-07T16:30:08.766Z,100248.41
2023-05-07T16:33:21.231Z,100239.09
2023-05-07T16:36:33.883Z,100236.25
2023-05-07T16:39:46.735Z,100248.72
2023-05-07T16:42:59.343Z,100244.09
2023-05-07T16:46:11.743Z,100248.44
2023-05-07T16:49:24.488Z,100241.59
2023-05-07T16:52:36.811Z,100237.88
2023-05-07T16:55:49.505Z,100247.16
2023-05-07T16:59:01.865Z,100239.75
2023-05-07T17:02:14.502Z,100248.78
2023-05-07T17:05:27.527Z,100244.25
2023-05-07T17:08:42.620Z,100243.19
2023-05-07T17:11:55.399Z,100257.03
2023-05-07T17:15:08.592Z,100257.28
2023-05-07T17:18:21.048Z,100258.38
2023-05-07T17:21:33.688Z,100263.94
2023-05-07T17:24:46.029Z,100265.22
2023-05-07T17:27:58.640Z,100272.78
2023-05-07T17:31:11.395Z,100274.28
2023-05-07T17:34:24.025Z,100273.16
2023-05-07T17:37:36.393Z,100270.66
2023-05-07T17:40:49.119Z,100282.00
2023-05-07T17:44:01.540Z,100284.50
2023-05-07T17:47:14.440Z,100281.81
2023-05-07T17:50:27.018Z,100287.22
2023-05-07T17:53:39.709Z,100286.81
2023-05-07T17:56:52.021Z,100295.19
2023-05-07T18:00:07.113Z,100291.41
2023-05-07T18:03:19.439Z,100302.97
2023-05-07T18:06:32.182Z,100318.25
2023-05-07T18:09:44.562Z,100319.81
2023-05-07T18:12:57.235Z,100339.63
2023-05-07T18:16:09.822Z,100355.75
2023-05-07T18:19:22.566Z,100374.25
2023-05-07T18:22:35.373Z,100373.72
2023-05-07T18:25:47.997Z,100382.22
2023-05-07T18:29:00.337Z,100394.03
2023-05-07T18:32:13.953Z,100407.13
2023-05-07T18:35:26.514Z,100420.28
2023-05-07T18:38:39.210Z,100413.94
2023-05-07T18:41:51.533Z,100426.87
2023-05-07T18:45:04.715Z,100448.59
2023-05-07T18:48:17.169Z,100454.13
2023-05-07T18:51:29.863Z,100457.81
2023-05-07T18:54:43.065Z,100457.56
2023-05-07T18:57:55.807Z,100462.50
2023-05-07T19:01:08.777Z,100458.72
2023-05-07T19:04:21.682Z,100467.47
2023-05-07T19:07:34.125Z,100477.97
2023-05-07T19:10:46.821Z,100473.44
2023-05-07T19:14:01.682Z,100479.38
2023-05-07T19:17:18.521Z,100485.66
2023-05-07T19:20:30.917Z,100491.81
2023-05-07T19:23:43.663Z,100493.53
2023-05-07T19:26:55.987Z,100508.97
2023-05-07T19:30:09.529Z,100516.34
2023-05-07T19:33:23.198Z,100517.59
2023-05-07T19:36:35.870Z,100521.03
2023-05-07T19:39:48.224Z,100528.56
2023-05-07T19:43:00.879Z,100539.13
2023-05-07T19:46:13.271Z,100540.41
2023-05-07T19:49:26.031Z,100548.53
2023-05-07T19:52:38.371Z,100553.34
2023-05-07T19:55:50.982Z,100552.97
2023-05-07T19:59:03.479Z,100561.44
2023-05-07T20:02:16.554Z,100568.66
2023-05-07T20:05:29.253Z,100575.50
2023-05-07T20:08:43.362Z,100581.12
2023-05-07T20:11:56.713Z,100583.31
2023-05-07T20:15:09.821Z,100585.56
2023-05-07T20:18:22.495Z,100591.53
2023-05-07T20:21:34.821Z,100593.13
2023-05-07T20:24:47.421Z,100591.91
2023-05-07T20:27:59.780Z,100598.69
2023-05-07T20:31:12.452Z,100606.00
2023-05-07T20:34:24.863Z,100610.22
2023-05-07T20:37:38.936Z,100612.47
2023-05-07T20:40:51.311Z,100617.63
2023-05-07T20:44:04.046Z,100621.09
2023-05-07T20:47:16.416Z,100615.84
2023-05-07T20:50:29.045Z,100614.03
2023-05-07T20:53:41.408Z,100621.03
2023-05-07T20:56:58.202Z,100617.78
2023-05-07T21:00:11.086Z,100619.59
2023-05-07T21:03:23.950Z,100621.50
2023-05-07T21:06:36.329Z,100617.91
2023-05-07T21:09:48.987Z,100621.09
2023-05-07T21:13:01.860Z,100625.94
2023-05-07T21:16:14.667Z,100623.59
2023-05-07T21:19:27.080Z,100622.94
2023-05-07T21:22:39.775Z,100632.72
2023-05-07T21:25:52.156Z,100633.37
2023-05-07T21:29:04.804Z,100644.56
2023-05-07T21:32:17.122Z,100644.25
2023-05-07T21:35:29.775Z,100642.09
2023-05-07T21:38:42.176Z,100656.31
2023-05-07T21:41:54.901Z,100655.94
2023-05-07T21:45:07.514Z,100649.47
2023-05-07T21:48:22.211Z,100659.28
2023-05-07T21:51:34.786Z,100659.91
2023-05-07T21:54:47.438Z,100661.59
2023-05-07T21:58:05.551Z,100658.34
2023-05-07T22:01:19.025Z,100658.94
2023-05-07T22:04:31.652Z,100658.72
2023-05-07T22:07:44.009Z,100669.56
2023-05-07T22:10:56.625Z,100665.09
2023-05-07T22:14:08.963Z,100667.22
2023-05-07T22:17:21.708Z,100673.78
2023-05-07T22:20:34.049Z,100661.94
2023-05-07T22:23:46.724Z,100668.09
2023-05-07T22:26:59.023Z,100662.66
2023-05-07T22:30:12.015Z,100659.34
2023-05-07T22:33:24.571Z,100661.19
2023-05-07T22:36:37.249Z,100661.28
2023-05-07T22:39:49.572Z,100659.34
2023-05-07T22:43:02.212Z,100662.69
2023-05-07T22:46:14.650Z,100662.34
2023-05-07T22:49:27.377Z,100664.81
2023-05-07T22:52:39.707Z,100668.41
2023-05-07T22:55:52.620Z,100672.84
2023-05-07T22:59:04.970Z,100673.41
2023-05-07T23:02:17.685Z,100676.22
2023-05-07T23:05:30.007Z,100674.19
2023-05-07T23:08:42.705Z,100681.78
2023-05-07T23:11:55.067Z,100681.25
2023-05-07T23:15:08.180Z,100688.41
2023-05-07T23:18:20.513Z,100691.56
2023-05-07T23:21:33.174Z,100688.59
2023-05-07T23:24:45.578Z,100693.63
2023-05-07T23:27:58.187Z,100697.44
2023-05-07T23:31:11.126Z,100697.19
2023-05-07T23:34:24.196Z,100703.53
2023-05-07T23:37:36.730Z,100702.53
2023-05-07T23:40:49.397Z,100695.00
2023-05-07T23:44:01.769Z,100700.50
2023-05-07T23:47:14.468Z,100697.44
2023-05-07T23:50:26.888Z,100701.72
2023-05-07T23:53:39.642Z,100703.59
2023-05-07T23:56:51.989Z,100711.03
